createdAt,value
2022-10-21T00:00:31.982Z,120.75
2022-10-21T00:03:03.904Z,147.75
2022-10-21T00:05:36.029Z,57.75
2022-10-21T00:08:10.836Z,181.25
2022-10-21T00:10:42.410Z,170.25
2022-10-21T00:13:15.693Z,64.00
2022-10-21T00:15:48.885Z,275.00
2022-10-21T00:18:23.310Z,333.00
2022-10-21T00:20:55.145Z,337.00
2022-10-21T00:23:27.569Z,162.00
2022-10-21T00:26:02.597Z,348.00
2022-10-21T00:28:38.060Z,314.00
2022-10-21T00:31:13.318Z,324.67
2022-10-21T00:33:46.057Z,204.50
2022-10-21T00:36:17.931Z,290.00
2022-10-21T00:38:51.699Z,216.00
2022-10-21T00:41:26.056Z,80.00
2022-10-21T00:44:03.049Z,168.50
2022-10-21T00:46:47.317Z,87.75
2022-10-21T00:49:27.594Z,115.50
2022-10-21T00:52:03.631Z,319.33
2022-10-21T00:54:39.748Z,219.50
2022-10-21T00:57:12.610Z,130.50
2022-10-21T00:59:49.336Z,197.50
2022-10-21T01:02:23.193Z,159.00
2022-10-21T01:04:58.128Z,95.25
2022-10-21T01:07:34.421Z,87.75
2022-10-21T01:10:13.219Z,320.75
2022-10-21T01:12:59.790Z,331.50
2022-10-21T01:15:43.087Z,335.25
2022-10-21T01:18:26.601Z,295.25
2022-10-21T01:21:24.863Z,284.25
2022-10-21T01:24:37.311Z,307.50
2022-10-21T01:27:39.424Z,272.00
2022-10-21T01:30:36.839Z,260.50
2022-10-21T01:33:33.851Z,308.00
2022-10-21T01:36:13.304Z,328.50
2022-10-21T01:38:51.327Z,341.00
2022-10-21T01:41:32.919Z,335.00
2022-10-21T01:44:12.307Z,319.50
2022-10-21T01:46:50.508Z,320.25
2022-10-21T01:49:32.260Z,345.00
2022-10-21T01:52:06.382Z,312.25
2022-10-21T01:54:45.152Z,361.00
2022-10-21T01:57:23.530Z,370.67
2022-10-21T02:00:03.997Z,333.75
2022-10-21T02:02:42.752Z,367.25
2022-10-21T02:05:21.011Z,360.67
2022-10-21T02:07:55.509Z,348.75
2022-10-21T02:10:35.503Z,376.00
2022-10-21T02:13:12.973Z,360.33
2022-10-21T02:15:46.795Z,356.75
2022-10-21T02:18:25.595Z,337.50
2022-10-21T02:21:03.362Z,335.50
2022-10-21T02:23:43.188Z,365.75
2022-10-21T02:26:16.522Z,348.00
2022-10-21T02:28:52.365Z,349.50
2022-10-21T02:31:49.321Z,355.25
2022-10-21T02:34:31.983Z,362.25
2022-10-21T02:37:18.057Z,372.67
2022-10-21T02:40:00.124Z,380.50
2022-10-21T02:42:40.175Z,309.80
2022-10-21T02:45:13.699Z,334.75
2022-10-21T02:47:49.678Z,306.40
2022-10-21T02:50:26.703Z,358.00
2022-10-21T02:53:01.724Z,373.75
2022-10-21T02:55:33.942Z,364.33
2022-10-21T02:58:06.168Z,329.00
2022-10-21T03:00:38.851Z,345.25
2022-10-21T03:03:11.496Z,393.75
2022-10-21T03:05:45.309Z,383.67
2022-10-21T03:08:20.200Z,386.67
2022-10-21T03:10:55.588Z,379.67
2022-10-21T03:13:31.005Z,409.67
2022-10-21T03:16:04.113Z,399.00
2022-10-21T03:18:36.645Z,383.67
2022-10-21T03:21:12.559Z,370.00
2022-10-21T03:23:47.146Z,353.67
2022-10-21T03:26:22.332Z,379.67
2022-10-21T03:28:57.657Z,393.33
2022-10-21T03:31:32.830Z,396.00
2022-10-21T03:34:07.406Z,398.00
2022-10-21T03:36:43.639Z,289.40
2022-10-21T03:39:16.269Z,310.25
2022-10-21T03:41:51.202Z,290.25
2022-10-21T03:44:26.384Z,262.25
2022-10-21T03:46:58.528Z,305.40
2022-10-21T03:49:33.172Z,313.50
2022-10-21T03:52:12.128Z,329.33
2022-10-21T03:54:47.670Z,295.20
2022-10-21T03:57:21.286Z,356.25
2022-10-21T03:59:53.637Z,281.40
2022-10-21T04:02:29.113Z,312.50
2022-10-21T04:05:04.191Z,290.00
2022-10-21T04:07:41.734Z,316.50
2022-10-21T04:10:16.590Z,343.67
2022-10-21T04:12:48.731Z,267.80
2022-10-21T04:15:25.047Z,235.00
2022-10-21T04:17:59.688Z,234.75
2022-10-21T04:20:31.893Z,334.75
2022-10-21T04:23:08.921Z,368.67
2022-10-21T04:25:47.118Z,362.00
2022-10-21T04:28:21.840Z,375.00
2022-10-21T04:30:57.520Z,374.00
2022-10-21T04:33:29.397Z,333.50
2022-10-21T04:36:05.530Z,351.33
2022-10-21T04:38:42.124Z,335.00
2022-10-21T04:41:18.927Z,346.33
2022-10-21T04:44:01.185Z,337.33
2022-10-21T04:46:39.885Z,376.33
2022-10-21T04:49:11.714Z,385.67
2022-10-21T04:51:46.946Z,393.33
2022-10-21T04:54:24.595Z,332.75
2022-10-21T04:56:58.622Z,321.00
2022-10-21T04:59:33.767Z,357.67
2022-10-21T05:02:09.509Z,395.00
2022-10-21T05:04:45.155Z,382.33
2022-10-21T05:07:19.983Z,384.33
2022-10-21T05:09:56.241Z,386.67
2022-10-21T05:12:31.065Z,368.00
2022-10-21T05:15:07.243Z,358.33
2022-10-21T05:17:42.918Z,379.00
2022-10-21T05:20:18.331Z,360.33
2022-10-21T05:22:54.940Z,373.67
2022-10-21T05:25:34.171Z,369.33
2022-10-21T05:28:10.163Z,333.67
2022-10-21T05:30:45.723Z,375.00
2022-10-21T05:33:21.155Z,362.67
2022-10-21T05:36:03.999Z,361.00
2022-10-21T05:38:37.192Z,368.33
2022-10-21T05:41:13.939Z,341.67
2022-10-21T05:43:48.521Z,304.67
2022-10-21T05:46:23.627Z,341.67
2022-10-21T05:48:58.242Z,372.67
2022-10-21T05:51:30.139Z,366.00
2022-10-21T05:54:06.916Z,347.67
2022-10-21T05:56:43.989Z,385.67
2022-10-21T05:59:19.646Z,359.67
2022-10-21T06:01:54.265Z,321.67
2022-10-21T06:04:29.234Z,334.33
2022-10-21T06:07:04.051Z,361.00
2022-10-21T06:09:39.189Z,347.67
2022-10-21T06:12:15.936Z,327.00
2022-10-21T06:14:52.135Z,301.00
2022-10-21T06:17:24.608Z,325.00
2022-10-21T06:19:59.350Z,345.00
2022-10-21T06:22:31.863Z,330.00
2022-10-21T06:25:07.736Z,367.00
2022-10-21T06:27:44.325Z,362.67
2022-10-21T06:30:19.662Z,352.33
2022-10-21T06:32:55.708Z,324.25
2022-10-21T06:35:31.759Z,315.67
2022-10-21T06:38:07.357Z,328.00
2022-10-21T06:40:42.339Z,342.33
2022-10-21T06:43:18.843Z,353.67
2022-10-21T06:45:53.293Z,353.00
2022-10-21T06:48:28.847Z,320.00
2022-10-21T06:51:02.489Z,334.25
2022-10-21T06:53:38.091Z,357.00
2022-10-21T06:56:13.459Z,342.00
2022-10-21T06:58:52.207Z,359.33
2022-10-21T07:01:40.999Z,332.33
2022-10-21T07:04:24.248Z,352.67
2022-10-21T07:06:56.894Z,329.67
2022-10-21T07:09:29.144Z,341.00
2022-10-21T07:12:01.179Z,314.00
2022-10-21T07:14:35.583Z,285.80
2022-10-21T07:17:07.842Z,304.50
2022-10-21T07:19:40.720Z,305.67
2022-10-21T07:22:12.647Z,320.75
2022-10-21T07:24:44.810Z,263.80
2022-10-21T07:27:16.978Z,251.00
2022-10-21T07:29:51.874Z,267.67
2022-10-21T07:32:24.346Z,222.25
2022-10-21T07:34:56.835Z,294.33
2022-10-21T07:37:29.545Z,319.00
2022-10-21T07:40:02.351Z,311.75
2022-10-21T07:42:33.983Z,257.50
2022-10-21T07:45:07.787Z,296.33
2022-10-21T07:47:40.211Z,257.33
2022-10-21T07:50:13.638Z,260.20
2022-10-21T07:52:55.968Z,288.50
2022-10-21T07:55:36.322Z,309.00
2022-10-21T07:58:09.070Z,304.75
2022-10-21T08:00:46.997Z,264.50
2022-10-21T08:03:18.975Z,308.33
2022-10-21T08:05:51.139Z,298.00
2022-10-21T08:08:24.085Z,311.33
2022-10-21T08:10:57.243Z,311.25
2022-10-21T08:13:29.432Z,311.75
2022-10-21T08:16:02.850Z,302.75
2022-10-21T08:18:36.070Z,311.67
2022-10-21T08:21:09.717Z,319.67
2022-10-21T08:23:42.147Z,325.33
2022-10-21T08:26:17.482Z,321.67
2022-10-21T08:28:50.108Z,336.33
2022-10-21T08:31:25.907Z,316.33
2022-10-21T08:34:03.828Z,281.67
2022-10-21T08:36:36.386Z,317.33
2022-10-21T08:39:08.739Z,326.33
2022-10-21T08:42:04.893Z,330.67
2022-10-21T08:44:48.602Z,312.33
2022-10-21T08:47:39.303Z,265.75
2022-10-21T08:50:17.062Z,299.25
2022-10-21T08:52:52.444Z,123.25
2022-10-21T08:55:27.561Z,244.25
2022-10-21T08:57:59.693Z,220.25
2022-10-21T09:00:35.974Z,178.67
2022-10-21T09:03:22.338Z,280.00
2022-10-21T09:06:20.190Z,273.00
2022-10-21T09:09:04.287Z,308.67
2022-10-21T09:11:50.022Z,309.67
2022-10-21T09:15:10.357Z,309.67
2022-10-21T09:18:11.947Z,229.75
2022-10-21T09:20:59.489Z,75.75
2022-10-21T09:23:44.498Z,236.50
2022-10-21T09:26:30.965Z,57.40
2022-10-21T09:29:06.523Z,149.50
2022-10-21T09:31:38.905Z,259.00
2022-10-21T09:34:21.852Z,236.00
2022-10-21T09:36:57.333Z,173.80
2022-10-21T09:39:43.500Z,261.20
2022-10-21T09:42:35.257Z,300.75
2022-10-21T09:45:17.441Z,317.67
2022-10-21T09:47:55.031Z,316.67
2022-10-21T09:50:28.253Z,284.75
2022-10-21T09:53:11.495Z,306.25
2022-10-21T09:55:44.483Z,250.00
2022-10-21T09:58:29.271Z,283.40
2022-10-21T10:01:01.839Z,272.50
2022-10-21T10:03:37.221Z,248.75
2022-10-21T10:06:09.799Z,282.00
2022-10-21T10:08:45.717Z,311.00
2022-10-21T10:11:23.065Z,274.75
2022-10-21T10:13:56.608Z,244.60
2022-10-21T10:16:32.231Z,208.00
2022-10-21T10:19:22.279Z,233.80
2022-10-21T10:22:12.505Z,264.33
2022-10-21T10:24:46.937Z,303.50
2022-10-21T10:27:24.785Z,316.00
2022-10-21T10:30:00.179Z,269.50
2022-10-21T10:32:37.495Z,213.80
2022-10-21T10:35:24.832Z,211.33
2022-10-21T10:37:59.893Z,149.75
2022-10-21T10:40:41.027Z,92.80
2022-10-21T10:43:27.872Z,105.50
2022-10-21T10:46:03.665Z,91.80
2022-10-21T10:48:41.949Z,73.60
2022-10-21T10:51:29.588Z,56.60
2022-10-21T10:54:07.315Z,50.00
2022-10-21T10:56:47.637Z,43.20
2022-10-21T10:59:27.772Z,48.25
2022-10-21T11:02:11.603Z,44.25
2022-10-21T11:04:49.839Z,162.25
2022-10-21T11:07:31.775Z,49.25
2022-10-21T11:10:10.894Z,93.60
2022-10-21T11:12:44.114Z,17.50
2022-10-21T11:15:18.478Z,65.00
2022-10-21T11:18:07.409Z,50.60
2022-10-21T11:21:01.803Z,72.00
2022-10-21T11:24:08.688Z,160.50
2022-10-21T11:26:47.896Z,253.75
2022-10-21T11:29:44.391Z,155.00
2022-10-21T11:32:30.895Z,110.00
2022-10-21T11:35:14.601Z,75.40
2022-10-21T11:38:05.123Z,266.25
2022-10-21T11:40:43.842Z,161.75
2022-10-21T11:43:37.149Z,287.50
2022-10-21T11:46:20.218Z,245.25
2022-10-21T11:49:11.547Z,283.75
2022-10-21T11:51:55.077Z,240.00
2022-10-21T11:55:09.529Z,280.00
2022-10-21T11:57:54.961Z,181.75
2022-10-21T12:00:28.866Z,307.00
2022-10-21T12:03:21.924Z,277.00
2022-10-21T12:06:04.093Z,237.00
2022-10-21T12:08:45.226Z,203.00
2022-10-21T12:11:23.356Z,245.33
2022-10-21T12:13:59.127Z,310.33
2022-10-21T12:16:35.830Z,300.50
2022-10-21T12:19:14.321Z,303.67
2022-10-21T12:21:48.972Z,271.75
2022-10-21T12:24:31.461Z,316.33
2022-10-21T12:27:13.759Z,341.67
2022-10-21T12:30:03.209Z,319.25
2022-10-21T12:32:43.624Z,331.33
2022-10-21T12:35:27.880Z,335.33
2022-10-21T12:38:23.526Z,331.33
2022-10-21T12:41:29.345Z,349.33
2022-10-21T12:44:23.889Z,265.25
2022-10-21T12:47:02.904Z,262.60
2022-10-21T12:49:38.136Z,264.25
2022-10-21T12:52:15.608Z,339.67
2022-10-21T12:54:58.418Z,331.00
2022-10-21T12:57:34.425Z,318.33
2022-10-21T13:00:40.670Z,297.50
2022-10-21T13:03:15.188Z,340.50
2022-10-21T13:06:08.702Z,331.75
2022-10-21T13:08:56.643Z,366.67
2022-10-21T13:11:43.166Z,351.00
2022-10-21T13:14:36.134Z,330.00
2022-10-21T13:17:49.681Z,339.25
2022-10-21T13:20:56.823Z,340.00
2022-10-21T13:23:40.364Z,339.00
2022-10-21T13:26:25.619Z,346.50
2022-10-21T13:29:06.657Z,341.00
2022-10-21T13:31:39.200Z,320.67
2022-10-21T13:34:30.544Z,315.00
2022-10-21T13:37:02.803Z,315.00
2022-10-21T13:39:37.940Z,293.00
2022-10-21T13:42:18.180Z,313.00
2022-10-21T13:44:57.366Z,293.00
2022-10-21T13:47:33.394Z,296.50
2022-10-21T13:50:27.421Z,304.50
2022-10-21T13:52:59.356Z,288.33
2022-10-21T13:55:32.062Z,281.00
2022-10-21T13:58:05.587Z,245.67
2022-10-21T14:00:37.873Z,177.50
2022-10-21T14:03:10.404Z,90.25
2022-10-21T14:05:49.492Z,175.00
2022-10-21T14:08:28.934Z,70.00
2022-10-21T14:11:05.261Z,64.80
2022-10-21T14:13:39.933Z,158.33
2022-10-21T14:16:13.975Z,139.50
2022-10-21T14:18:51.490Z,127.00
2022-10-21T14:21:27.167Z,73.40
2022-10-21T14:23:59.449Z,110.75
2022-10-21T14:26:35.003Z,187.00
2022-10-21T14:29:09.129Z,244.50
2022-10-21T14:31:44.232Z,186.67
2022-10-21T14:34:28.074Z,175.75
2022-10-21T14:37:11.080Z,136.75
2022-10-21T14:39:44.709Z,208.20
2022-10-21T14:42:20.766Z,265.00
2022-10-21T14:45:01.481Z,273.80
2022-10-21T14:47:34.701Z,309.40
2022-10-21T14:50:08.532Z,246.33
2022-10-21T14:52:49.042Z,293.50
2022-10-21T14:55:30.666Z,263.00
2022-10-21T14:58:11.744Z,230.40
2022-10-21T15:00:46.530Z,250.00
2022-10-21T15:03:18.813Z,233.67
2022-10-21T15:05:50.807Z,306.20
2022-10-21T15:08:33.601Z,361.00
2022-10-21T15:11:24.890Z,308.80
2022-10-21T15:14:02.081Z,290.00
2022-10-21T15:16:36.538Z,303.25
2022-10-21T15:19:12.427Z,277.25
2022-10-21T15:21:51.523Z,304.40
2022-10-21T15:24:28.460Z,287.75
2022-10-21T15:27:02.933Z,241.75
2022-10-21T15:29:39.430Z,180.20
2022-10-21T15:32:16.676Z,264.80
2022-10-21T15:34:48.866Z,226.40
2022-10-21T15:37:21.619Z,171.00
2022-10-21T15:39:53.643Z,164.25
2022-10-21T15:42:26.378Z,268.20
2022-10-21T15:44:58.429Z,200.00
2022-10-21T15:47:33.922Z,188.00
2022-10-21T15:50:16.127Z,202.25
2022-10-21T15:52:48.219Z,231.20
2022-10-21T15:55:20.490Z,176.60
2022-10-21T15:57:53.483Z,151.25
2022-10-21T16:00:27.042Z,259.20
2022-10-21T16:03:01.862Z,312.50
2022-10-21T16:05:34.857Z,305.00
2022-10-21T16:08:07.150Z,310.75
2022-10-21T16:10:43.040Z,338.75
2022-10-21T16:13:14.885Z,267.40
2022-10-21T16:15:47.181Z,284.25
2022-10-21T16:18:20.757Z,264.00
2022-10-21T16:20:55.464Z,315.25
2022-10-21T16:23:28.319Z,315.40
2022-10-21T16:26:00.810Z,306.25
2022-10-21T16:28:32.988Z,305.00
2022-10-21T16:31:07.327Z,215.60
2022-10-21T16:33:41.129Z,210.75
2022-10-21T16:36:19.366Z,207.25
2022-10-21T16:38:52.573Z,209.75
2022-10-21T16:41:29.745Z,184.00
2022-10-21T16:44:02.535Z,216.00
2022-10-21T16:46:38.198Z,262.00
2022-10-21T16:49:16.935Z,222.50
2022-10-21T16:51:49.303Z,233.00
2022-10-21T16:54:22.504Z,141.00
2022-10-21T16:56:55.624Z,169.75
2022-10-21T16:59:28.400Z,196.50
2022-10-21T17:02:02.073Z,209.25
2022-10-21T17:04:35.505Z,219.75
2022-10-21T17:07:07.807Z,234.60
2022-10-21T17:09:39.712Z,202.20
2022-10-21T17:12:14.726Z,215.25
2022-10-21T17:14:46.752Z,274.75
2022-10-21T17:17:20.462Z,311.00
2022-10-21T17:19:54.885Z,283.50
2022-10-21T17:22:27.148Z,236.60
2022-10-21T17:24:59.238Z,277.50
2022-10-21T17:27:31.528Z,234.33
2022-10-21T17:30:03.536Z,231.25
2022-10-21T17:32:36.417Z,257.40
2022-10-21T17:35:18.544Z,265.00
2022-10-21T17:37:52.306Z,246.80
2022-10-21T17:40:26.118Z,300.25
2022-10-21T17:42:59.875Z,295.75
2022-10-21T17:45:31.825Z,263.80
2022-10-21T17:48:04.475Z,281.40
2022-10-21T17:50:40.014Z,289.25
2022-10-21T17:53:12.696Z,267.80
2022-10-21T17:55:44.620Z,298.00
2022-10-21T17:58:16.610Z,276.40
2022-10-21T18:00:49.076Z,279.00
2022-10-21T18:03:21.234Z,221.60
2022-10-21T18:05:57.024Z,113.40
2022-10-21T18:08:29.430Z,106.20
2022-10-21T18:11:02.220Z,101.20
2022-10-21T18:13:35.697Z,104.00
2022-10-21T18:16:08.838Z,93.60
2022-10-21T18:21:19.635Z,113.20
2022-10-21T18:23:54.264Z,102.80
2022-10-21T18:26:29.917Z,99.00
2022-10-21T18:29:03.624Z,97.00
2022-10-21T18:31:37.801Z,107.20
2022-10-21T18:34:11.769Z,103.40
2022-10-21T18:36:45.623Z,103.60
2022-10-21T18:39:17.828Z,107.00
2022-10-21T18:41:50.012Z,99.40
2022-10-21T18:44:22.668Z,104.20
2022-10-21T18:46:56.172Z,106.60
2022-10-21T18:49:28.695Z,101.40
2022-10-21T18:52:02.389Z,90.00
2022-10-21T18:54:35.278Z,88.40
2022-10-21T18:57:11.352Z,96.20
2022-10-21T18:59:43.389Z,99.80
2022-10-21T19:02:23.419Z,122.50
2022-10-21T19:04:58.299Z,77.00
2022-10-21T19:07:35.302Z,102.00
2022-10-21T19:10:07.900Z,99.20
2022-10-21T19:12:40.264Z,84.20
2022-10-21T19:15:13.776Z,90.20
2022-10-21T19:17:46.433Z,82.00
2022-10-21T19:20:19.299Z,104.40
2022-10-21T19:22:53.627Z,216.25
2022-10-21T19:25:26.040Z,198.00
2022-10-21T19:27:58.108Z,216.80
2022-10-21T19:30:31.305Z,240.60
2022-10-21T19:33:04.009Z,258.00
2022-10-21T19:35:35.913Z,231.80
2022-10-21T19:38:15.524Z,230.00
2022-10-21T19:40:53.977Z,236.20
2022-10-21T19:43:26.460Z,228.67
2022-10-21T19:45:59.966Z,209.00
2022-10-21T19:48:32.300Z,189.00
2022-10-21T19:51:04.587Z,111.40
2022-10-21T19:53:38.515Z,112.60
2022-10-21T19:56:11.904Z,89.40
2022-10-21T19:58:48.092Z,81.60
2022-10-21T20:01:25.095Z,102.20
2022-10-21T20:03:57.987Z,167.67
2022-10-21T20:06:32.868Z,113.40
2022-10-21T20:09:08.732Z,100.20
2022-10-21T20:11:41.656Z,118.60
2022-10-21T20:14:16.005Z,95.80
2022-10-21T20:16:51.370Z,81.40
2022-10-21T20:19:23.829Z,74.00
2022-10-21T20:21:56.206Z,91.00
2022-10-21T20:24:30.515Z,98.20
2022-10-21T20:27:02.600Z,85.60
2022-10-21T20:29:34.941Z,106.80
2022-10-21T20:32:07.337Z,83.00
2022-10-21T20:34:41.249Z,100.20
2022-10-21T20:37:13.688Z,94.20
2022-10-21T20:39:47.437Z,140.67
2022-10-21T20:42:19.508Z,130.20
2022-10-21T20:44:52.273Z,123.25
2022-10-21T20:47:27.543Z,169.67
2022-10-21T20:50:02.800Z,166.75
2022-10-21T20:52:35.222Z,173.25
2022-10-21T20:55:10.072Z,160.00
2022-10-21T20:57:42.639Z,212.25
2022-10-21T21:00:19.506Z,210.00
2022-10-21T21:02:51.781Z,187.00
2022-10-21T21:05:23.964Z,185.75
2022-10-21T21:07:56.004Z,128.20
2022-10-21T21:10:29.867Z,170.00
2022-10-21T21:13:02.265Z,261.75
2022-10-21T21:15:34.569Z,285.75
2022-10-21T21:18:13.004Z,254.60
2022-10-21T21:20:45.314Z,152.60
2022-10-21T21:23:17.798Z,78.60
2022-10-21T21:25:51.806Z,229.00
2022-10-21T21:28:24.247Z,89.20
2022-10-21T21:30:56.363Z,191.50
2022-10-21T21:33:28.683Z,172.25
2022-10-21T21:36:01.344Z,82.80
2022-10-21T21:38:35.242Z,128.00
2022-10-21T21:41:10.563Z,93.40
2022-10-21T21:43:45.167Z,105.75
2022-10-21T21:46:24.209Z,151.75
2022-10-21T21:49:00.997Z,225.00
2022-10-21T21:51:39.113Z,235.00
2022-10-21T21:54:11.428Z,261.50
2022-10-21T21:56:45.455Z,275.50
2022-10-21T21:59:17.722Z,253.20
2022-10-21T22:01:50.041Z,156.50
2022-10-21T22:04:22.119Z,216.00
2022-10-21T22:06:54.536Z,138.75
2022-10-21T22:09:28.397Z,177.00
2022-10-21T22:12:02.131Z,71.00
2022-10-21T22:14:34.859Z,184.50
2022-10-21T22:17:06.697Z,116.75
2022-10-21T22:19:39.200Z,241.00
2022-10-21T22:22:11.099Z,214.50
2022-10-21T22:24:44.271Z,173.75
2022-10-21T22:27:18.316Z,330.00
2022-10-21T22:29:50.966Z,304.75
2022-10-21T22:32:23.231Z,267.50
2022-10-21T22:34:56.083Z,253.67
2022-10-21T22:37:27.898Z,193.75
2022-10-21T22:40:00.246Z,263.20
2022-10-21T22:42:34.406Z,266.50
2022-10-21T22:45:06.633Z,233.50
2022-10-21T22:47:39.246Z,195.00
2022-10-21T22:50:12.679Z,287.80
2022-10-21T22:52:45.526Z,295.25
2022-10-21T22:55:17.990Z,176.25
2022-10-21T22:57:52.092Z,154.00
2022-10-21T23:00:24.633Z,183.25
2022-10-21T23:02:56.680Z,142.25
2022-10-21T23:05:28.931Z,224.75
2022-10-21T23:08:01.026Z,197.75
2022-10-21T23:10:33.569Z,125.75
2022-10-21T23:13:07.953Z,265.67
2022-10-21T23:15:40.433Z,245.67
2022-10-21T23:18:12.621Z,255.00
2022-10-21T23:20:45.233Z,294.75
2022-10-21T23:23:17.161Z,250.00
2022-10-21T23:25:49.577Z,281.00
2022-10-21T23:28:23.374Z,279.20
2022-10-21T23:30:56.208Z,253.20
2022-10-21T23:33:28.869Z,243.80
2022-10-21T23:36:01.084Z,342.20
2022-10-21T23:38:33.646Z,344.00
2022-10-21T23:41:06.250Z,361.67
2022-10-21T23:43:40.265Z,405.00
2022-10-21T23:46:12.386Z,394.67
2022-10-21T23:48:44.957Z,398.00
2022-10-21T23:51:17.228Z,348.67
2022-10-21T23:53:49.734Z,332.75
2022-10-21T23:56:22.531Z,303.00
2022-10-21T23:58:57.193Z,259.20
